createdAt,value
2019-01-24T00:00:51.580Z,68.40
2019-01-24T00:01:51.571Z,61.80
2019-01-24T00:02:51.567Z,54.00
2019-01-24T00:03:52.330Z,55.70
2019-01-24T00:04:51.540Z,57.50
2019-01-24T00:05:51.547Z,57.30
2019-01-24T00:06:51.524Z,56.10
2019-01-24T00:07:51.891Z,60.20
2019-01-24T00:08:52.842Z,57.40
2019-01-24T00:09:51.503Z,58.40
2019-01-24T00:10:51.482Z,59.10
2019-01-24T00:11:51.501Z,62.80
2019-01-24T00:12:51.460Z,60.40
2019-01-24T00:13:51.690Z,55.70
2019-01-24T00:14:51.465Z,56.80
2019-01-24T00:15:51.480Z,53.80
2019-01-24T00:16:51.434Z,55.40
2019-01-24T00:17:51.472Z,57.80
2019-01-24T00:18:51.569Z,58.00
2019-01-24T00:19:51.603Z,54.50
2019-01-24T00:20:52.434Z,55.70
2019-01-24T00:21:51.397Z,54.50
2019-01-24T00:22:51.367Z,56.70
2019-01-24T00:23:51.645Z,55.50
2019-01-24T00:24:51.337Z,58.90
2019-01-24T00:25:52.022Z,57.30
2019-01-24T00:26:51.323Z,53.80
2019-01-24T00:27:52.072Z,56.30
2019-01-24T00:28:51.298Z,56.00
2019-01-24T00:29:51.290Z,54.20
2019-01-24T00:30:51.321Z,54.70
2019-01-24T00:31:51.298Z,57.80
2019-01-24T00:32:51.253Z,55.80
2019-01-24T00:33:51.246Z,56.00
2019-01-24T00:34:51.277Z,57.80
2019-01-24T00:35:51.225Z,59.10
2019-01-24T00:36:51.213Z,57.00
2019-01-24T00:37:51.258Z,58.30
2019-01-24T00:38:51.191Z,58.90
2019-01-24T00:39:51.188Z,55.30
2019-01-24T00:40:51.168Z,54.30
2019-01-24T00:41:51.164Z,58.50
2019-01-24T00:42:51.144Z,58.20
2019-01-24T00:43:51.135Z,54.50
2019-01-24T00:44:51.128Z,57.20
2019-01-24T00:45:51.129Z,57.70
2019-01-24T00:46:51.102Z,56.50
2019-01-24T00:47:51.091Z,57.50
2019-01-24T00:48:51.077Z,50.80
2019-01-24T00:49:51.066Z,54.50
2019-01-24T00:50:51.063Z,55.80
2019-01-24T00:51:51.051Z,59.80
2019-01-24T00:52:51.036Z,56.00
2019-01-24T00:53:51.033Z,58.50
2019-01-24T00:54:51.017Z,53.90
2019-01-24T00:55:51.007Z,59.70
2019-01-24T00:56:50.997Z,62.40
2019-01-24T00:57:50.985Z,55.90
2019-01-24T00:58:50.974Z,53.30
2019-01-24T00:59:50.967Z,55.70
2019-01-24T01:00:50.951Z,58.40
2019-01-24T01:01:50.944Z,53.70
2019-01-24T01:02:50.938Z,57.80
2019-01-24T01:03:50.918Z,52.80
2019-01-24T01:04:50.911Z,54.60
2019-01-24T01:05:50.907Z,55.70
2019-01-24T01:06:50.891Z,56.40
2019-01-24T01:07:50.878Z,56.40
2019-01-24T01:08:50.873Z,54.30
2019-01-24T01:09:50.865Z,57.20
2019-01-24T01:10:50.850Z,54.40
2019-01-24T01:11:50.947Z,54.40
2019-01-24T01:12:50.842Z,57.60
2019-01-24T01:13:50.820Z,55.30
2019-01-24T01:14:50.818Z,53.50
2019-01-24T01:15:50.806Z,55.00
2019-01-24T01:16:50.792Z,54.90
2019-01-24T01:17:50.788Z,58.40
2019-01-24T01:18:50.782Z,56.10
2019-01-24T01:19:50.757Z,54.10
2019-01-24T01:20:50.750Z,54.50
2019-01-24T01:21:50.733Z,59.10
2019-01-24T01:22:50.725Z,54.20
2019-01-24T01:23:50.716Z,55.20
2019-01-24T01:24:50.700Z,52.30
2019-01-24T01:25:50.690Z,54.80
2019-01-24T01:26:50.693Z,56.10
2019-01-24T01:27:50.673Z,58.80
2019-01-24T01:28:50.664Z,56.50
2019-01-24T01:29:50.664Z,54.00
2019-01-24T01:30:50.641Z,52.00
2019-01-24T01:31:50.631Z,53.80
2019-01-24T01:32:50.620Z,56.30
2019-01-24T01:33:50.604Z,58.00
2019-01-24T01:34:50.593Z,56.20
2019-01-24T01:35:50.592Z,55.20
2019-01-24T01:36:50.580Z,54.30
2019-01-24T01:37:50.565Z,53.00
2019-01-24T01:38:50.549Z,53.10
2019-01-24T01:39:50.569Z,55.90
2019-01-24T01:40:50.529Z,55.40
2019-01-24T01:41:50.635Z,58.10
2019-01-24T01:42:50.506Z,55.80
2019-01-24T01:43:50.512Z,55.70
2019-01-24T01:44:50.486Z,55.70
2019-01-24T01:45:50.476Z,55.80
2019-01-24T01:46:50.469Z,54.10
2019-01-24T01:47:50.455Z,57.80
2019-01-24T01:48:50.444Z,52.30
2019-01-24T01:49:50.434Z,56.10
2019-01-24T01:50:50.423Z,56.60
2019-01-24T01:51:50.413Z,55.20
2019-01-24T01:52:50.408Z,54.10
2019-01-24T01:53:50.401Z,55.80
2019-01-24T01:54:50.381Z,54.90
2019-01-24T01:55:50.380Z,59.40
2019-01-24T01:56:50.362Z,53.50
2019-01-24T01:57:50.350Z,56.30
2019-01-24T01:58:50.338Z,53.90
2019-01-24T01:59:50.332Z,56.40
2019-01-24T02:00:50.317Z,58.50
2019-01-24T02:01:50.308Z,52.40
2019-01-24T02:02:50.300Z,53.20
2019-01-24T02:03:50.288Z,57.70
2019-01-24T02:04:50.275Z,55.80
2019-01-24T02:05:50.271Z,54.50
2019-01-24T02:06:50.255Z,53.90
2019-01-24T02:07:50.249Z,55.60
2019-01-24T02:08:50.233Z,56.10
2019-01-24T02:09:50.226Z,55.00
2019-01-24T02:10:50.213Z,54.80
2019-01-24T02:11:50.211Z,56.80
2019-01-24T02:12:50.190Z,55.00
2019-01-24T02:13:50.195Z,53.20
2019-01-24T02:14:50.171Z,53.20
2019-01-24T02:15:50.167Z,55.90
2019-01-24T02:16:50.156Z,52.00
2019-01-24T02:17:50.152Z,53.40
2019-01-24T02:18:50.133Z,53.20
2019-01-24T02:19:50.125Z,52.00
2019-01-24T02:20:50.106Z,55.90
2019-01-24T02:21:50.095Z,57.50
2019-01-24T02:22:50.091Z,54.90
2019-01-24T02:23:50.086Z,54.30
2019-01-24T02:24:50.067Z,55.20
2019-01-24T02:25:50.062Z,56.40
2019-01-24T02:26:50.044Z,54.60
2019-01-24T02:27:50.034Z,54.60
2019-01-24T02:28:50.026Z,55.30
2019-01-24T02:29:50.012Z,57.90
2019-01-24T02:30:50.104Z,54.70
2019-01-24T02:31:50.000Z,53.30
2019-01-24T02:32:50.082Z,55.40
2019-01-24T02:33:49.978Z,53.40
2019-01-24T02:34:50.003Z,56.60
2019-01-24T02:35:49.956Z,55.70
2019-01-24T02:36:49.937Z,54.10
2019-01-24T02:37:49.932Z,52.50
2019-01-24T02:38:49.917Z,55.70
2019-01-24T02:39:49.906Z,53.50
2019-01-24T02:40:49.897Z,56.00
2019-01-24T02:41:49.899Z,56.10
2019-01-24T02:42:49.877Z,56.70
2019-01-24T02:43:49.871Z,53.80
2019-01-24T02:44:49.852Z,55.20
2019-01-24T02:45:49.874Z,56.20
2019-01-24T02:46:49.831Z,54.70
2019-01-24T02:47:49.822Z,55.30
2019-01-24T02:48:49.817Z,53.60
2019-01-24T02:49:49.817Z,56.10
2019-01-24T02:50:49.794Z,52.40
2019-01-24T02:51:49.783Z,54.70
2019-01-24T02:52:49.803Z,54.60
2019-01-24T02:53:49.766Z,59.10
2019-01-24T02:54:49.753Z,55.70
2019-01-24T02:55:49.737Z,54.50
2019-01-24T02:56:49.724Z,54.00
2019-01-24T02:57:49.714Z,53.40
2019-01-24T02:58:49.703Z,53.00
2019-01-24T02:59:49.700Z,56.30
2019-01-24T03:00:49.682Z,54.60
2019-01-24T03:01:49.674Z,53.50
2019-01-24T03:02:49.664Z,55.80
2019-01-24T03:03:49.652Z,53.60
2019-01-24T03:04:49.642Z,55.90
2019-01-24T03:05:49.649Z,57.70
2019-01-24T03:06:49.638Z,54.30
2019-01-24T03:07:49.611Z,54.50
2019-01-24T03:08:49.597Z,55.70
2019-01-24T03:09:49.588Z,56.60
2019-01-24T03:10:49.577Z,57.20
2019-01-24T03:11:49.569Z,56.30
2019-01-24T03:12:49.556Z,59.60
2019-01-24T03:13:49.547Z,54.00
2019-01-24T03:14:49.534Z,56.90
2019-01-24T03:15:49.547Z,54.20
2019-01-24T03:16:49.514Z,57.60
2019-01-24T03:17:49.629Z,56.70
2019-01-24T03:18:49.498Z,55.20
2019-01-24T03:19:49.484Z,57.20
2019-01-24T03:20:49.472Z,56.30
2019-01-24T03:21:49.464Z,53.50
2019-01-24T03:22:49.451Z,56.00
2019-01-24T03:23:49.441Z,53.70
2019-01-24T03:24:49.430Z,56.90
2019-01-24T03:25:49.418Z,53.00
2019-01-24T03:26:49.414Z,55.80
2019-01-24T03:27:49.399Z,55.80
2019-01-24T03:28:49.394Z,55.20
2019-01-24T03:29:49.388Z,57.90
2019-01-24T03:30:49.388Z,59.10
2019-01-24T03:31:49.360Z,58.20
2019-01-24T03:32:49.352Z,57.60
2019-01-24T03:33:49.333Z,52.80
2019-01-24T03:34:49.328Z,57.70
2019-01-24T03:35:49.317Z,58.20
2019-01-24T03:36:49.308Z,57.90
2019-01-24T03:37:49.298Z,58.70
2019-01-24T03:38:49.285Z,59.30
2019-01-24T03:39:49.273Z,57.80
2019-01-24T03:40:49.271Z,58.30
2019-01-24T03:41:49.258Z,59.80
2019-01-24T03:42:49.254Z,61.40
2019-01-24T03:43:49.232Z,63.40
2019-01-24T03:44:49.224Z,56.80
2019-01-24T03:45:49.213Z,56.30
2019-01-24T03:46:49.205Z,59.90
2019-01-24T03:47:49.189Z,59.20
2019-01-24T03:48:49.193Z,55.60
2019-01-24T03:49:49.163Z,57.30
2019-01-24T03:50:49.189Z,58.60
2019-01-24T03:51:49.145Z,56.40
2019-01-24T03:52:49.143Z,60.40
2019-01-24T03:53:49.124Z,59.90
2019-01-24T03:54:49.122Z,59.70
2019-01-24T03:55:49.106Z,60.40
2019-01-24T03:56:49.096Z,61.80
2019-01-24T03:57:49.087Z,58.10
2019-01-24T03:58:49.082Z,62.40
2019-01-24T03:59:49.059Z,60.50
2019-01-24T04:00:49.061Z,64.50
2019-01-24T04:01:49.036Z,63.80
2019-01-24T04:02:49.031Z,61.50
2019-01-24T04:03:49.017Z,65.20
2019-01-24T04:04:49.011Z,63.40
2019-01-24T04:05:48.997Z,62.50
2019-01-24T04:06:49.000Z,65.40
2019-01-24T04:07:48.980Z,65.80
2019-01-24T04:08:48.963Z,64.60
2019-01-24T04:09:48.955Z,61.70
2019-01-24T04:10:48.941Z,64.80
2019-01-24T04:11:48.937Z,63.80
2019-01-24T04:12:48.941Z,61.50
2019-01-24T04:13:48.913Z,62.90
2019-01-24T04:14:48.911Z,63.50
2019-01-24T04:15:48.889Z,61.10
2019-01-24T04:16:48.879Z,61.70
2019-01-24T04:17:48.871Z,63.60
2019-01-24T04:18:48.858Z,61.90
2019-01-24T04:19:48.847Z,63.90
2019-01-24T04:20:48.838Z,61.40
2019-01-24T04:21:48.834Z,63.10
2019-01-24T04:22:48.824Z,62.50
2019-01-24T04:23:48.933Z,60.60
2019-01-24T04:24:48.809Z,63.10
2019-01-24T04:25:48.793Z,64.00
2019-01-24T04:26:48.789Z,62.80
2019-01-24T04:27:48.772Z,61.60
2019-01-24T04:28:48.771Z,61.20
2019-01-24T04:29:48.747Z,64.10
2019-01-24T04:30:48.739Z,62.30
2019-01-24T04:31:48.725Z,59.60
2019-01-24T04:32:48.710Z,66.60
2019-01-24T04:33:48.704Z,58.90
2019-01-24T04:34:48.692Z,64.20
2019-01-24T04:35:48.682Z,66.40
2019-01-24T04:36:48.692Z,61.50
2019-01-24T04:37:48.658Z,62.20
2019-01-24T04:38:48.650Z,60.30
2019-01-24T04:39:48.640Z,61.30
2019-01-24T04:40:48.629Z,63.20
2019-01-24T04:41:48.622Z,61.20
2019-01-24T04:42:48.604Z,65.40
2019-01-24T04:43:48.596Z,61.30
2019-01-24T04:44:48.584Z,68.20
2019-01-24T04:45:48.583Z,65.20
2019-01-24T04:46:48.565Z,60.80
2019-01-24T04:47:48.558Z,62.00
2019-01-24T04:48:48.541Z,63.20
2019-01-24T04:49:48.531Z,61.70
2019-01-24T04:50:48.531Z,64.40
2019-01-24T04:51:48.520Z,62.20
2019-01-24T04:52:48.554Z,60.60
2019-01-24T04:53:48.496Z,64.90
2019-01-24T04:54:48.485Z,65.10
2019-01-24T04:55:48.472Z,60.20
2019-01-24T04:56:48.462Z,59.80
2019-01-24T04:57:48.446Z,59.60
2019-01-24T04:58:48.442Z,63.70
2019-01-24T04:59:48.429Z,60.50
2019-01-24T05:00:48.414Z,60.40
2019-01-24T05:01:48.404Z,62.10
2019-01-24T05:02:48.394Z,59.10
2019-01-24T05:03:48.383Z,58.20
2019-01-24T05:04:48.372Z,61.50
2019-01-24T05:05:48.367Z,58.70
2019-01-24T05:06:48.360Z,60.10
2019-01-24T05:07:48.343Z,57.70
2019-01-24T05:08:48.328Z,58.10
2019-01-24T05:09:48.328Z,57.20
2019-01-24T05:10:48.309Z,61.30
2019-01-24T05:11:48.311Z,60.10
2019-01-24T05:12:48.292Z,58.30
2019-01-24T05:13:48.278Z,58.70
2019-01-24T05:14:48.289Z,58.80
2019-01-24T05:15:48.279Z,59.90
2019-01-24T05:16:48.245Z,62.30
2019-01-24T05:17:48.261Z,60.80
2019-01-24T05:18:48.227Z,61.60
2019-01-24T05:19:48.217Z,55.30
2019-01-24T05:20:48.207Z,58.70
2019-01-24T05:21:48.213Z,59.40
2019-01-24T05:22:48.181Z,57.90
2019-01-24T05:23:48.178Z,57.70
2019-01-24T05:24:48.160Z,59.40
2019-01-24T05:25:48.153Z,55.00
2019-01-24T05:26:48.140Z,57.40
2019-01-24T05:27:48.152Z,56.90
2019-01-24T05:28:48.125Z,56.40
2019-01-24T05:29:48.118Z,57.10
2019-01-24T05:30:48.105Z,60.70
2019-01-24T05:31:48.092Z,58.60
2019-01-24T05:32:48.098Z,58.80
2019-01-24T05:33:48.074Z,58.60
2019-01-24T05:34:48.081Z,57.50
2019-01-24T05:35:48.056Z,56.00
2019-01-24T05:36:48.042Z,56.60
2019-01-24T05:37:48.030Z,57.10
2019-01-24T05:38:48.018Z,61.30
2019-01-24T05:39:48.012Z,57.30
2019-01-24T05:40:47.996Z,57.70
2019-01-24T05:41:47.991Z,53.60
2019-01-24T05:42:47.972Z,53.10
2019-01-24T05:43:47.962Z,52.30
2019-01-24T05:44:47.948Z,58.00
2019-01-24T05:45:47.942Z,59.40
2019-01-24T05:46:47.927Z,54.70
2019-01-24T05:47:47.917Z,54.90
2019-01-24T05:48:47.907Z,56.30
2019-01-24T05:49:47.900Z,52.00
2019-01-24T05:50:47.954Z,54.70
2019-01-24T05:51:47.882Z,53.80
2019-01-24T05:52:47.868Z,54.80
2019-01-24T05:53:47.867Z,57.30
2019-01-24T05:54:47.857Z,58.80
2019-01-24T05:55:47.843Z,52.90
2019-01-24T05:56:47.829Z,55.80
2019-01-24T05:57:47.822Z,54.40
2019-01-24T05:58:47.809Z,55.90
2019-01-24T05:59:47.821Z,55.50
2019-01-24T06:00:47.793Z,56.10
2019-01-24T06:01:47.779Z,53.60
2019-01-24T06:02:47.766Z,54.90
2019-01-24T06:03:47.757Z,52.00
2019-01-24T06:04:47.745Z,53.00
2019-01-24T06:05:47.729Z,52.70
2019-01-24T06:06:47.718Z,51.30
2019-01-24T06:07:47.715Z,51.10
2019-01-24T06:08:47.702Z,55.80
2019-01-24T06:09:47.692Z,57.00
2019-01-24T06:10:47.684Z,53.60
2019-01-24T06:11:47.667Z,52.20
2019-01-24T06:12:47.662Z,51.30
2019-01-24T06:13:47.660Z,51.40
2019-01-24T06:14:47.643Z,53.80
2019-01-24T06:15:47.700Z,50.90
2019-01-24T06:16:47.616Z,51.50
2019-01-24T06:17:47.629Z,51.00
2019-01-24T06:18:47.601Z,55.60
2019-01-24T06:19:47.980Z,52.70
2019-01-24T06:20:47.641Z,52.50
2019-01-24T06:21:47.841Z,49.00
2019-01-24T06:22:47.555Z,48.10
2019-01-24T06:23:47.550Z,49.40
2019-01-24T06:24:47.541Z,49.40
2019-01-24T06:25:47.519Z,47.10
2019-01-24T06:26:47.514Z,52.00
2019-01-24T06:27:47.499Z,51.10
2019-01-24T06:28:47.491Z,47.20
2019-01-24T06:29:47.488Z,51.70
2019-01-24T06:30:47.477Z,50.10
2019-01-24T06:31:47.456Z,47.30
2019-01-24T06:32:47.459Z,48.40
2019-01-24T06:33:47.435Z,45.70
2019-01-24T06:34:47.432Z,51.60
2019-01-24T06:35:48.832Z,45.80
2019-01-24T06:36:47.426Z,49.20
2019-01-24T06:37:47.393Z,48.40
2019-01-24T06:38:47.434Z,48.20
2019-01-24T06:39:47.371Z,50.00
2019-01-24T06:40:47.367Z,47.30
2019-01-24T06:41:47.354Z,46.70
2019-01-24T06:42:47.344Z,47.20
2019-01-24T06:43:47.329Z,48.30
2019-01-24T06:44:47.322Z,44.40
2019-01-24T06:45:47.309Z,49.60
2019-01-24T06:46:47.303Z,46.90
2019-01-24T06:47:47.289Z,49.90
2019-01-24T06:48:47.285Z,47.70
2019-01-24T06:49:47.266Z,49.20
2019-01-24T06:50:47.260Z,51.40
2019-01-24T06:51:47.244Z,46.20
2019-01-24T06:52:47.240Z,46.10
2019-01-24T06:53:47.233Z,46.50
2019-01-24T06:54:47.220Z,44.90
2019-01-24T06:55:47.203Z,48.50
2019-01-24T06:56:47.195Z,44.30
2019-01-24T06:57:47.186Z,46.40
2019-01-24T06:58:47.175Z,44.10
2019-01-24T06:59:47.166Z,45.90
2019-01-24T07:00:47.158Z,46.30
2019-01-24T07:01:47.248Z,45.60
2019-01-24T07:02:47.129Z,43.50
2019-01-24T07:03:47.130Z,46.80
2019-01-24T07:04:47.111Z,46.70
2019-01-24T07:05:47.105Z,42.40
2019-01-24T07:06:47.090Z,49.20
2019-01-24T07:07:47.076Z,47.30
2019-01-24T07:08:47.074Z,47.50
2019-01-24T07:09:47.056Z,44.30
2019-01-24T07:10:47.046Z,44.30
2019-01-24T07:11:47.039Z,42.60
2019-01-24T07:12:47.032Z,44.70
2019-01-24T07:13:47.012Z,46.50
2019-01-24T07:14:47.001Z,47.40
2019-01-24T07:15:46.990Z,46.60
2019-01-24T07:16:46.978Z,47.40
2019-01-24T07:17:46.975Z,43.90
2019-01-24T07:18:46.955Z,47.70
2019-01-24T07:19:46.944Z,45.00
2019-01-24T07:20:46.948Z,42.00
2019-01-24T07:21:46.924Z,45.90
2019-01-24T07:22:47.019Z,43.90
2019-01-24T07:23:46.901Z,42.90
2019-01-24T07:24:46.892Z,44.20
2019-01-24T07:25:46.880Z,44.30
2019-01-24T07:26:46.873Z,43.20
2019-01-24T07:27:46.871Z,42.80
2019-01-24T07:28:46.864Z,47.40
2019-01-24T07:29:46.837Z,46.80
2019-01-24T07:30:46.842Z,44.50
2019-01-24T07:31:46.825Z,43.90
2019-01-24T07:32:46.814Z,45.60
2019-01-24T07:33:46.802Z,48.70
2019-01-24T07:34:46.787Z,48.50
2019-01-24T07:35:46.777Z,45.00
2019-01-24T07:36:46.768Z,43.20
2019-01-24T07:37:46.754Z,47.50
2019-01-24T07:38:46.749Z,39.40
2019-01-24T07:39:46.739Z,44.50
2019-01-24T07:40:46.723Z,47.20
2019-01-24T07:41:46.715Z,47.00
2019-01-24T07:42:46.707Z,45.20
2019-01-24T07:43:47.226Z,44.80
2019-01-24T07:44:46.682Z,40.50
2019-01-24T07:45:46.669Z,42.60
2019-01-24T07:46:46.670Z,42.10
2019-01-24T07:47:46.655Z,43.40
2019-01-24T07:48:46.640Z,45.40
2019-01-24T07:49:46.627Z,45.30
2019-01-24T07:50:46.635Z,43.10
2019-01-24T07:51:46.616Z,43.20
2019-01-24T07:52:46.601Z,43.60
2019-01-24T07:53:46.584Z,43.20
2019-01-24T07:54:46.574Z,40.90
2019-01-24T07:55:46.566Z,41.40
2019-01-24T07:56:46.558Z,43.80
2019-01-24T07:57:46.605Z,43.40
2019-01-24T07:58:46.532Z,41.80
2019-01-24T07:59:46.526Z,43.10
2019-01-24T08:00:46.511Z,41.90
2019-01-24T08:01:46.504Z,45.70
2019-01-24T08:02:46.499Z,40.00
2019-01-24T08:03:46.482Z,42.10
2019-01-24T08:04:46.470Z,39.20
2019-01-24T08:05:46.459Z,41.00
2019-01-24T08:06:46.447Z,38.80
2019-01-24T08:07:46.435Z,41.40
2019-01-24T08:08:46.433Z,43.40
2019-01-24T08:09:46.418Z,38.20
2019-01-24T08:10:46.405Z,37.40
2019-01-24T08:11:46.398Z,45.00
2019-01-24T08:12:46.383Z,42.80
2019-01-24T08:13:46.373Z,41.40
2019-01-24T08:14:46.369Z,40.90
2019-01-24T08:15:46.414Z,41.30
2019-01-24T08:16:46.344Z,42.50
2019-01-24T08:17:46.379Z,41.30
2019-01-24T08:18:46.328Z,40.30
2019-01-24T08:19:46.309Z,42.80
2019-01-24T08:20:46.300Z,41.60
2019-01-24T08:21:46.296Z,40.30
2019-01-24T08:22:46.285Z,39.90
2019-01-24T08:23:46.268Z,39.60
2019-01-24T08:24:46.260Z,40.70
2019-01-24T08:25:46.249Z,38.10
2019-01-24T08:26:46.238Z,40.90
2019-01-24T08:27:46.229Z,42.90
2019-01-24T08:28:46.219Z,40.70
2019-01-24T08:29:46.205Z,38.70
2019-01-24T08:30:46.195Z,38.80
2019-01-24T08:31:46.184Z,39.00
2019-01-24T08:32:46.177Z,38.30
2019-01-24T08:33:46.162Z,38.10
2019-01-24T08:34:46.160Z,39.20
2019-01-24T08:35:46.141Z,39.20
2019-01-24T08:36:46.128Z,37.20
2019-01-24T08:37:46.119Z,40.70
2019-01-24T08:38:46.193Z,41.00
2019-01-24T08:39:46.097Z,39.50
2019-01-24T08:40:46.086Z,42.50
2019-01-24T08:41:46.077Z,39.80
2019-01-24T08:42:46.065Z,39.60
2019-01-24T08:43:46.093Z,40.80
2019-01-24T08:44:46.050Z,38.30
2019-01-24T08:45:46.054Z,39.70
2019-01-24T08:46:46.024Z,36.20
2019-01-24T08:47:46.018Z,37.90
2019-01-24T08:48:46.002Z,38.00
2019-01-24T08:49:45.992Z,38.70
2019-01-24T08:50:45.985Z,38.60
2019-01-24T08:51:45.971Z,39.00
2019-01-24T08:52:45.961Z,39.40
2019-01-24T08:53:45.951Z,37.20
2019-01-24T08:54:45.943Z,37.50
2019-01-24T08:55:45.935Z,39.50
2019-01-24T08:56:45.980Z,42.60
2019-01-24T08:57:45.955Z,44.60
2019-01-24T08:58:45.896Z,37.60
2019-01-24T08:59:45.885Z,37.50
2019-01-24T09:00:45.879Z,39.70
2019-01-24T09:01:45.864Z,41.50
2019-01-24T09:02:45.873Z,40.30
2019-01-24T09:03:45.844Z,41.10
2019-01-24T09:04:45.831Z,41.50
2019-01-24T09:05:45.823Z,41.90
2019-01-24T09:06:45.818Z,43.60
2019-01-24T09:07:45.804Z,42.90
2019-01-24T09:08:45.803Z,39.80
2019-01-24T09:09:45.786Z,38.00
2019-01-24T09:10:45.778Z,41.30
2019-01-24T09:11:45.764Z,39.40
2019-01-24T09:12:45.765Z,38.70
2019-01-24T09:13:45.747Z,40.40
2019-01-24T09:14:45.809Z,39.10
2019-01-24T09:15:45.795Z,43.50
2019-01-24T09:16:45.713Z,42.70
2019-01-24T09:17:45.702Z,41.70
2019-01-24T09:18:45.694Z,41.30
2019-01-24T09:19:45.683Z,45.40
2019-01-24T09:20:45.747Z,42.30
2019-01-24T09:21:45.657Z,40.20
2019-01-24T09:22:45.657Z,41.70
2019-01-24T09:23:45.641Z,43.10
2019-01-24T09:24:45.630Z,44.50
2019-01-24T09:25:45.623Z,41.50
2019-01-24T09:26:45.614Z,41.50
2019-01-24T09:27:45.595Z,42.70
2019-01-24T09:28:45.581Z,42.80
2019-01-24T09:29:45.572Z,42.90
2019-01-24T09:30:45.560Z,41.30
2019-01-24T09:31:45.626Z,40.90
2019-01-24T09:32:45.545Z,41.60
2019-01-24T09:33:45.526Z,42.60
2019-01-24T09:34:45.516Z,43.00
2019-01-24T09:35:45.508Z,46.40
2019-01-24T09:36:45.545Z,42.60
2019-01-24T09:37:45.499Z,43.90
2019-01-24T09:38:45.477Z,40.50
2019-01-24T09:39:45.465Z,40.50
2019-01-24T09:40:45.452Z,40.50
2019-01-24T09:41:45.443Z,39.60
2019-01-24T09:42:45.432Z,41.80
2019-01-24T09:43:45.425Z,42.10
2019-01-24T09:44:45.411Z,41.30
2019-01-24T09:45:45.422Z,39.20
2019-01-24T09:46:45.388Z,39.80
2019-01-24T09:47:45.377Z,38.60
2019-01-24T09:48:45.375Z,39.70
2019-01-24T09:49:45.357Z,41.00
2019-01-24T09:50:45.346Z,43.30
2019-01-24T09:51:45.339Z,38.20
2019-01-24T09:52:45.325Z,39.40
2019-01-24T09:53:45.316Z,40.20
2019-01-24T09:54:45.309Z,39.20
2019-01-24T09:55:45.294Z,43.20
2019-01-24T09:56:45.282Z,42.70
2019-01-24T09:57:45.275Z,41.20
2019-01-24T09:58:45.264Z,41.40
2019-01-24T09:59:45.253Z,42.10
2019-01-24T10:00:45.250Z,42.10
2019-01-24T10:01:45.258Z,41.60
2019-01-24T10:02:45.228Z,41.60
2019-01-24T10:03:45.217Z,41.40
2019-01-24T10:04:45.202Z,42.60
2019-01-24T10:05:45.188Z,43.10
2019-01-24T10:06:45.183Z,44.10
2019-01-24T10:07:45.170Z,51.20
2019-01-24T10:08:45.160Z,51.10
2019-01-24T10:09:45.147Z,48.90
2019-01-24T10:10:45.137Z,46.10
2019-01-24T10:11:45.131Z,49.10
2019-01-24T10:12:45.126Z,48.20
2019-01-24T10:13:45.140Z,49.80
2019-01-24T10:14:45.103Z,49.40
2019-01-24T10:15:45.092Z,49.80
2019-01-24T10:16:45.079Z,49.50
2019-01-24T10:17:45.067Z,54.10
2019-01-24T10:18:45.063Z,51.70
2019-01-24T10:19:45.045Z,52.70
2019-01-24T10:20:45.032Z,51.80
2019-01-24T10:21:45.025Z,48.60
2019-01-24T10:22:45.015Z,52.90
2019-01-24T10:23:44.999Z,52.90
2019-01-24T10:24:44.995Z,50.70
2019-01-24T10:25:44.987Z,52.40
2019-01-24T10:26:44.970Z,53.80
2019-01-24T10:27:44.958Z,49.10
2019-01-24T10:28:44.947Z,51.10
2019-01-24T10:29:44.941Z,52.70
2019-01-24T10:30:44.934Z,51.00
2019-01-24T10:31:46.402Z,53.10
2019-01-24T10:32:44.904Z,52.80
2019-01-24T10:33:44.893Z,54.10
2019-01-24T10:34:44.884Z,54.10
2019-01-24T10:35:44.874Z,53.40
2019-01-24T10:36:44.863Z,56.90
2019-01-24T10:37:44.856Z,57.30
2019-01-24T10:38:44.843Z,56.00
2019-01-24T10:39:44.831Z,55.90
2019-01-24T10:40:44.819Z,57.40
2019-01-24T10:41:44.816Z,54.00
2019-01-24T10:42:44.810Z,57.60
2019-01-24T10:43:44.788Z,64.90
2019-01-24T10:44:44.779Z,63.70
2019-01-24T10:45:44.772Z,59.80
2019-01-24T10:46:44.755Z,60.60
2019-01-24T10:47:44.748Z,61.10
2019-01-24T10:48:44.740Z,68.00
2019-01-24T10:49:44.748Z,65.40
2019-01-24T10:50:44.716Z,64.90
2019-01-24T10:51:44.703Z,67.30
2019-01-24T10:52:44.693Z,65.40
2019-01-24T10:53:44.685Z,66.40
2019-01-24T10:54:44.680Z,68.80
2019-01-24T10:55:44.661Z,64.50
2019-01-24T10:56:44.653Z,64.20
2019-01-24T10:57:44.644Z,65.10
2019-01-24T10:58:44.633Z,71.20
2019-01-24T10:59:44.627Z,64.00
2019-01-24T11:00:44.619Z,68.80
2019-01-24T11:01:44.599Z,67.50
2019-01-24T11:02:44.590Z,64.90
2019-01-24T11:03:44.576Z,64.60
2019-01-24T11:04:44.568Z,65.40
2019-01-24T11:05:44.557Z,66.90
2019-01-24T11:06:49.989Z,67.00
2019-01-24T11:07:45.532Z,65.40
2019-01-24T11:08:44.523Z,63.90
2019-01-24T11:09:44.513Z,67.20
2019-01-24T11:10:44.514Z,68.70
2019-01-24T11:11:44.492Z,67.90
2019-01-24T11:12:44.485Z,65.70
2019-01-24T11:13:44.471Z,68.10
2019-01-24T11:14:44.459Z,73.30
2019-01-24T11:15:44.453Z,64.70
2019-01-24T11:16:44.446Z,66.50
2019-01-24T11:17:44.505Z,69.40
2019-01-24T11:18:44.436Z,74.50
2019-01-24T11:19:44.438Z,67.60
2019-01-24T11:20:44.402Z,66.50
2019-01-24T11:21:44.391Z,69.90
2019-01-24T11:22:44.384Z,71.40
2019-01-24T11:23:44.368Z,68.10
2019-01-24T11:24:44.365Z,69.60
2019-01-24T11:25:44.560Z,72.00
2019-01-24T11:26:44.341Z,68.30
2019-01-24T11:27:44.328Z,71.30
2019-01-24T11:28:44.324Z,72.10
2019-01-24T11:29:44.308Z,73.30
2019-01-24T11:30:44.303Z,68.10
2019-01-24T11:31:44.285Z,71.80
2019-01-24T11:32:44.310Z,69.60
2019-01-24T11:33:44.435Z,71.40
2019-01-24T11:34:44.271Z,71.10
2019-01-24T11:35:44.245Z,72.10
2019-01-24T11:36:44.434Z,75.30
2019-01-24T11:37:44.444Z,71.60
2019-01-24T11:38:44.211Z,72.60
2019-01-24T11:39:44.206Z,71.10
2019-01-24T11:40:44.286Z,72.90
2019-01-24T11:41:44.180Z,71.70
2019-01-24T11:42:44.175Z,71.70
2019-01-24T11:43:44.346Z,71.00
2019-01-24T11:44:44.163Z,74.80
2019-01-24T11:45:44.137Z,71.80
2019-01-24T11:46:44.139Z,72.80
2019-01-24T11:47:44.122Z,74.60
2019-01-24T11:48:44.115Z,77.30
2019-01-24T11:49:44.096Z,75.20
2019-01-24T11:50:44.174Z,73.90
2019-01-24T11:51:44.076Z,70.70
2019-01-24T11:52:44.073Z,73.60
2019-01-24T11:53:44.054Z,70.50
2019-01-24T11:54:44.050Z,72.10
2019-01-24T11:55:44.039Z,72.00
2019-01-24T11:56:44.026Z,71.80
2019-01-24T11:57:44.031Z,71.10
2019-01-24T11:58:44.008Z,68.40
2019-01-24T11:59:43.991Z,66.70
2019-01-24T12:00:44.058Z,68.10
2019-01-24T12:01:43.974Z,69.30
2019-01-24T12:02:43.958Z,72.40
2019-01-24T12:03:43.954Z,67.10
2019-01-24T12:04:43.953Z,69.60
2019-01-24T12:05:43.931Z,73.90
2019-01-24T12:06:43.934Z,69.90
2019-01-24T12:07:43.912Z,69.30
2019-01-24T12:08:43.899Z,64.80
2019-01-24T12:09:43.888Z,69.80
2019-01-24T12:10:43.875Z,68.30
2019-01-24T12:11:44.004Z,68.60
2019-01-24T12:12:43.862Z,69.90
2019-01-24T12:13:43.854Z,65.00
2019-01-24T12:14:43.834Z,69.10
2019-01-24T12:15:43.823Z,71.00
2019-01-24T12:16:43.817Z,70.00
2019-01-24T12:17:43.810Z,69.40
2019-01-24T12:18:43.801Z,64.80
2019-01-24T12:19:43.793Z,74.60
2019-01-24T12:20:43.768Z,68.60
2019-01-24T12:21:43.765Z,63.90
2019-01-24T12:22:43.754Z,63.60
2019-01-24T12:23:43.744Z,70.60
2019-01-24T12:24:43.738Z,63.90
2019-01-24T12:25:43.715Z,65.40
2019-01-24T12:26:43.714Z,67.00
2019-01-24T12:27:43.701Z,61.40
2019-01-24T12:28:43.687Z,68.10
2019-01-24T12:29:43.677Z,69.50
2019-01-24T12:30:43.678Z,65.60
2019-01-24T12:31:43.654Z,62.90
2019-01-24T12:32:43.643Z,61.00
2019-01-24T12:33:43.639Z,61.90
2019-01-24T12:34:43.625Z,62.60
2019-01-24T12:35:43.613Z,64.40
2019-01-24T12:36:43.620Z,62.00
2019-01-24T12:37:43.601Z,65.90
2019-01-24T12:38:43.589Z,62.90
2019-01-24T12:39:43.574Z,61.20
2019-01-24T12:40:43.573Z,59.40
2019-01-24T12:41:43.559Z,61.50
2019-01-24T12:42:43.579Z,62.00
2019-01-24T12:43:43.532Z,62.30
2019-01-24T12:44:43.530Z,63.40
2019-01-24T12:45:43.514Z,61.40
2019-01-24T12:46:43.500Z,59.30
2019-01-24T12:47:43.493Z,62.00
2019-01-24T12:48:43.532Z,57.30
2019-01-24T12:49:43.462Z,61.20
2019-01-24T12:50:43.460Z,59.40
2019-01-24T12:51:43.469Z,57.70
2019-01-24T12:52:43.441Z,58.80